sensor_id;sensor_type;location;lat;lon;timestamp;temperature;humidity
22416;DHT22;12204;50.600;4.608;2022-10-22T00:04:52;22.70;86.90
22416;DHT22;12204;50.600;4.608;2022-10-22T00:09:58;22.70;86.80
22416;DHT22;12204;50.600;4.608;2022-10-22T00:15:03;22.70;86.90
22416;DHT22;12204;50.600;4.608;2022-10-22T00:20:09;22.70;86.60
22416;DHT22;12204;50.600;4.608;2022-10-22T00:25:13;22.70;86.90
22416;DHT22;12204;50.600;4.608;2022-10-22T00:30:19;22.70;87.30
22416;DHT22;12204;50.600;4.608;2022-10-22T00:35:22;22.70;87.70
22416;DHT22;12204;50.600;4.608;2022-10-22T00:40:26;22.70;87.30
22416;DHT22;12204;50.600;4.608;2022-10-22T00:45:31;22.80;87.10
22416;DHT22;12204;50.600;4.608;2022-10-22T00:50:37;22.80;86.90
22416;DHT22;12204;50.600;4.608;2022-10-22T00:55:46;22.80;86.90
22416;DHT22;12204;50.600;4.608;2022-10-22T01:00:54;22.70;86.70
22416;DHT22;12204;50.600;4.608;2022-10-22T01:06:00;22.70;87.30
22416;DHT22;12204;50.600;4.608;2022-10-22T01:11:12;22.80;87.00
22416;DHT22;12204;50.600;4.608;2022-10-22T01:16:29;22.80;87.00
22416;DHT22;12204;50.600;4.608;2022-10-22T01:21:41;22.70;87.10
22416;DHT22;12204;50.600;4.608;2022-10-22T01:27:07;22.80;87.20
22416;DHT22;12204;50.600;4.608;2022-10-22T01:32:22;22.70;87.20
22416;DHT22;12204;50.600;4.608;2022-10-22T01:37:29;22.80;87.80
22416;DHT22;12204;50.600;4.608;2022-10-22T01:42:37;22.80;87.50
22416;DHT22;12204;50.600;4.608;2022-10-22T01:47:53;22.80;87.80
22416;DHT22;12204;50.600;4.608;2022-10-22T01:53:18;22.80;87.80
22416;DHT22;12204;50.600;4.608;2022-10-22T01:58:36;22.80;87.70
22416;DHT22;12204;50.600;4.608;2022-10-22T02:03:50;22.80;87.50
22416;DHT22;12204;50.600;4.608;2022-10-22T02:08:59;22.80;87.60
22416;DHT22;12204;50.600;4.608;2022-10-22T02:14:06;22.80;87.70
22416;DHT22;12204;50.600;4.608;2022-10-22T02:19:16;22.80;88.10
22416;DHT22;12204;50.600;4.608;2022-10-22T02:24:25;22.70;87.80
22416;DHT22;12204;50.600;4.608;2022-10-22T02:29:33;22.70;87.90
22416;DHT22;12204;50.600;4.608;2022-10-22T02:34:43;22.80;87.80
22416;DHT22;12204;50.600;4.608;2022-10-22T02:39:48;22.70;87.50
22416;DHT22;12204;50.600;4.608;2022-10-22T02:44:53;22.70;87.80
22416;DHT22;12204;50.600;4.608;2022-10-22T02:49:58;22.70;87.90
22416;DHT22;12204;50.600;4.608;2022-10-22T02:55:01;22.70;87.80
22416;DHT22;12204;50.600;4.608;2022-10-22T03:00:07;22.80;88.00
22416;DHT22;12204;50.600;4.608;2022-10-22T03:05:14;22.70;87.80
22416;DHT22;12204;50.600;4.608;2022-10-22T03:10:17;22.80;87.90
22416;DHT22;12204;50.600;4.608;2022-10-22T03:15:21;22.80;87.80
22416;DHT22;12204;50.600;4.608;2022-10-22T03:20:26;22.80;87.80
22416;DHT22;12204;50.600;4.608;2022-10-22T03:25:30;22.80;87.50
22416;DHT22;12204;50.600;4.608;2022-10-22T03:30:35;22.80;88.10
22416;DHT22;12204;50.600;4.608;2022-10-22T03:35:43;22.70;88.20
22416;DHT22;12204;50.600;4.608;2022-10-22T03:40:48;22.70;88.20
22416;DHT22;12204;50.600;4.608;2022-10-22T03:45:52;22.70;88.20
22416;DHT22;12204;50.600;4.608;2022-10-22T03:50:57;22.70;88.00
22416;DHT22;12204;50.600;4.608;2022-10-22T03:56:00;22.70;88.20
22416;DHT22;12204;50.600;4.608;2022-10-22T04:01:05;22.70;88.00
22416;DHT22;12204;50.600;4.608;2022-10-22T04:06:11;22.70;88.20
22416;DHT22;12204;50.600;4.608;2022-10-22T04:11:16;22.70;88.00
22416;DHT22;12204;50.600;4.608;2022-10-22T04:16:21;22.70;88.10
22416;DHT22;12204;50.600;4.608;2022-10-22T04:21:31;22.70;88.20
22416;DHT22;12204;50.600;4.608;2022-10-22T04:26:35;22.70;88.70
22416;DHT22;12204;50.600;4.608;2022-10-22T04:31:38;22.70;88.90
22416;DHT22;12204;50.600;4.608;2022-10-22T04:36:43;22.70;89.10
22416;DHT22;12204;50.600;4.608;2022-10-22T04:41:47;22.70;89.00
22416;DHT22;12204;50.600;4.608;2022-10-22T04:46:51;22.70;88.90
22416;DHT22;12204;50.600;4.608;2022-10-22T04:51:56;22.60;88.80
22416;DHT22;12204;50.600;4.608;2022-10-22T04:56:59;22.70;89.10
22416;DHT22;12204;50.600;4.608;2022-10-22T05:02:03;22.70;88.90
22416;DHT22;12204;50.600;4.608;2022-10-22T05:07:08;22.70;88.90
22416;DHT22;12204;50.600;4.608;2022-10-22T05:12:11;22.70;88.90
22416;DHT22;12204;50.600;4.608;2022-10-22T05:17:15;22.70;88.90
22416;DHT22;12204;50.600;4.608;2022-10-22T05:22:20;22.70;88.80
22416;DHT22;12204;50.600;4.608;2022-10-22T05:27:23;22.70;88.90
22416;DHT22;12204;50.600;4.608;2022-10-22T05:32:27;22.70;88.80
22416;DHT22;12204;50.600;4.608;2022-10-22T05:37:32;22.70;88.70
22416;DHT22;12204;50.600;4.608;2022-10-22T05:42:35;22.70;88.70
22416;DHT22;12204;50.600;4.608;2022-10-22T05:47:39;22.60;88.30
22416;DHT22;12204;50.600;4.608;2022-10-22T05:52:44;22.60;87.50
22416;DHT22;12204;50.600;4.608;2022-10-22T05:57:48;22.60;87.70
22416;DHT22;12204;50.600;4.608;2022-10-22T06:02:51;22.60;87.60
22416;DHT22;12204;50.600;4.608;2022-10-22T06:07:56;22.60;88.70
22416;DHT22;12204;50.600;4.608;2022-10-22T06:13:00;22.60;88.90
22416;DHT22;12204;50.600;4.608;2022-10-22T06:18:04;22.60;89.00
22416;DHT22;12204;50.600;4.608;2022-10-22T06:23:09;22.60;88.30
22416;DHT22;12204;50.600;4.608;2022-10-22T06:28:12;22.60;89.10
22416;DHT22;12204;50.600;4.608;2022-10-22T06:33:16;22.60;89.00
22416;DHT22;12204;50.600;4.608;2022-10-22T06:38:21;22.60;89.30
22416;DHT22;12204;50.600;4.608;2022-10-22T06:43:24;22.60;89.10
22416;DHT22;12204;50.600;4.608;2022-10-22T06:48:28;22.60;88.80
22416;DHT22;12204;50.600;4.608;2022-10-22T06:53:34;22.60;88.60
22416;DHT22;12204;50.600;4.608;2022-10-22T06:58:38;22.60;88.40
22416;DHT22;12204;50.600;4.608;2022-10-22T07:03:42;22.60;87.90
22416;DHT22;12204;50.600;4.608;2022-10-22T07:08:47;22.60;87.10
22416;DHT22;12204;50.600;4.608;2022-10-22T07:13:53;22.70;87.60
22416;DHT22;12204;50.600;4.608;2022-10-22T07:18:57;22.70;86.90
22416;DHT22;12204;50.600;4.608;2022-10-22T07:24:03;22.60;86.20
22416;DHT22;12204;50.600;4.608;2022-10-22T07:29:07;22.60;85.10
22416;DHT22;12204;50.600;4.608;2022-10-22T07:34:10;22.50;84.40
22416;DHT22;12204;50.600;4.608;2022-10-22T07:39:15;22.40;83.50
22416;DHT22;12204;50.600;4.608;2022-10-22T07:44:21;22.30;82.80
22416;DHT22;12204;50.600;4.608;2022-10-22T07:49:24;22.30;82.40
22416;DHT22;12204;50.600;4.608;2022-10-22T07:54:29;22.30;81.80
22416;DHT22;12204;50.600;4.608;2022-10-22T07:59:33;22.30;81.30
22416;DHT22;12204;50.600;4.608;2022-10-22T08:04:36;22.30;81.20
22416;DHT22;12204;50.600;4.608;2022-10-22T08:09:42;22.30;80.60
22416;DHT22;12204;50.600;4.608;2022-10-22T08:14:45;22.20;79.80
22416;DHT22;12204;50.600;4.608;2022-10-22T08:19:49;22.20;79.70
22416;DHT22;12204;50.600;4.608;2022-10-22T08:24:53;22.20;79.60
22416;DHT22;12204;50.600;4.608;2022-10-22T08:29:57;22.10;79.20
22416;DHT22;12204;50.600;4.608;2022-10-22T08:35:01;22.10;79.10
22416;DHT22;12204;50.600;4.608;2022-10-22T08:40:07;22.10;78.70
22416;DHT22;12204;50.600;4.608;2022-10-22T08:45:16;22.20;79.60
22416;DHT22;12204;50.600;4.608;2022-10-22T08:50:30;22.20;79.60
22416;DHT22;12204;50.600;4.608;2022-10-22T08:55:38;22.20;79.70
22416;DHT22;12204;50.600;4.608;2022-10-22T09:00:44;22.20;79.90
22416;DHT22;12204;50.600;4.608;2022-10-22T09:05:58;22.20;80.10
22416;DHT22;12204;50.600;4.608;2022-10-22T09:11:19;22.20;80.30
22416;DHT22;12204;50.600;4.608;2022-10-22T09:16:35;22.20;80.50
22416;DHT22;12204;50.600;4.608;2022-10-22T09:21:48;22.20;80.60
22416;DHT22;12204;50.600;4.608;2022-10-22T09:26:59;22.20;80.70
22416;DHT22;12204;50.600;4.608;2022-10-22T09:32:04;22.20;80.80
22416;DHT22;12204;50.600;4.608;2022-10-22T09:37:08;22.20;80.90
22416;DHT22;12204;50.600;4.608;2022-10-22T09:42:16;22.20;81.00
22416;DHT22;12204;50.600;4.608;2022-10-22T09:47:33;22.20;81.10
22416;DHT22;12204;50.600;4.608;2022-10-22T09:52:58;22.20;81.20
22416;DHT22;12204;50.600;4.608;2022-10-22T09:58:11;22.20;81.40
22416;DHT22;12204;50.600;4.608;2022-10-22T10:03:17;22.30;82.00
22416;DHT22;12204;50.600;4.608;2022-10-22T10:08:23;22.30;82.20
22416;DHT22;12204;50.600;4.608;2022-10-22T10:13:39;22.30;82.20
22416;DHT22;12204;50.600;4.608;2022-10-22T10:19:00;22.30;82.30
22416;DHT22;12204;50.600;4.608;2022-10-22T10:24:21;22.20;82.30
22416;DHT22;12204;50.600;4.608;2022-10-22T10:29:44;22.20;82.40
22416;DHT22;12204;50.600;4.608;2022-10-22T10:34:57;22.20;82.50
22416;DHT22;12204;50.600;4.608;2022-10-22T10:40:20;22.20;82.40
22416;DHT22;12204;50.600;4.608;2022-10-22T10:45:39;22.20;82.40
22416;DHT22;12204;50.600;4.608;2022-10-22T10:50:54;22.20;82.40
22416;DHT22;12204;50.600;4.608;2022-10-22T10:56:14;22.30;82.50
22416;DHT22;12204;50.600;4.608;2022-10-22T11:01:39;22.20;82.50
22416;DHT22;12204;50.600;4.608;2022-10-22T11:06:57;22.20;83.30
22416;DHT22;12204;50.600;4.608;2022-10-22T11:12:16;22.20;82.60
22416;DHT22;12204;50.600;4.608;2022-10-22T11:17:26;22.20;82.50
22416;DHT22;12204;50.600;4.608;2022-10-22T11:22:37;22.20;82.50
22416;DHT22;12204;50.600;4.608;2022-10-22T11:28:07;22.20;82.40
22416;DHT22;12204;50.600;4.608;2022-10-22T11:33:23;22.20;82.40
22416;DHT22;12204;50.600;4.608;2022-10-22T11:38:31;22.20;82.40
22416;DHT22;12204;50.600;4.608;2022-10-22T11:43:56;22.30;82.40
22416;DHT22;12204;50.600;4.608;2022-10-22T11:49:21;22.30;82.40
22416;DHT22;12204;50.600;4.608;2022-10-22T11:54:38;22.20;82.40
22416;DHT22;12204;50.600;4.608;2022-10-22T11:59:48;22.20;82.20
22416;DHT22;12204;50.600;4.608;2022-10-22T12:10:59;22.20;82.10
22416;DHT22;12204;50.600;4.608;2022-10-22T12:16:10;22.20;82.10
22416;DHT22;12204;50.600;4.608;2022-10-22T12:21:20;22.30;81.80
22416;DHT22;12204;50.600;4.608;2022-10-22T12:26:25;22.30;81.80
22416;DHT22;12204;50.600;4.608;2022-10-22T12:31:35;22.30;81.90
22416;DHT22;12204;50.600;4.608;2022-10-22T12:36:42;22.30;81.90
22416;DHT22;12204;50.600;4.608;2022-10-22T12:41:47;22.30;81.90
22416;DHT22;12204;50.600;4.608;2022-10-22T12:46:50;22.20;82.00
22416;DHT22;12204;50.600;4.608;2022-10-22T12:52:02;22.20;81.80
22416;DHT22;12204;50.600;4.608;2022-10-22T12:57:16;22.30;81.90
22416;DHT22;12204;50.600;4.608;2022-10-22T13:02:22;22.20;81.80
22416;DHT22;12204;50.600;4.608;2022-10-22T13:07:37;22.20;81.80
22416;DHT22;12204;50.600;4.608;2022-10-22T13:12:47;22.30;81.80
22416;DHT22;12204;50.600;4.608;2022-10-22T13:18:01;22.30;81.70
22416;DHT22;12204;50.600;4.608;2022-10-22T13:23:19;22.20;81.70
22416;DHT22;12204;50.600;4.608;2022-10-22T13:28:25;22.20;81.70
22416;DHT22;12204;50.600;4.608;2022-10-22T13:33:32;22.20;81.70
22416;DHT22;12204;50.600;4.608;2022-10-22T13:38:38;22.30;81.80
22416;DHT22;12204;50.600;4.608;2022-10-22T13:43:42;22.30;81.60
22416;DHT22;12204;50.600;4.608;2022-10-22T13:48:47;22.30;81.50
22416;DHT22;12204;50.600;4.608;2022-10-22T13:53:54;22.30;81.40
22416;DHT22;12204;50.600;4.608;2022-10-22T13:58:58;22.30;81.40
22416;DHT22;12204;50.600;4.608;2022-10-22T14:04:03;22.30;81.30
22416;DHT22;12204;50.600;4.608;2022-10-22T14:09:14;22.30;81.30
22416;DHT22;12204;50.600;4.608;2022-10-22T14:14:18;22.30;81.20
22416;DHT22;12204;50.600;4.608;2022-10-22T14:19:22;22.40;81.30
22416;DHT22;12204;50.600;4.608;2022-10-22T14:24:27;22.40;81.30
22416;DHT22;12204;50.600;4.608;2022-10-22T14:29:30;22.40;81.30
22416;DHT22;12204;50.600;4.608;2022-10-22T14:34:34;22.40;81.20
22416;DHT22;12204;50.600;4.608;2022-10-22T14:39:39;22.40;81.30
22416;DHT22;12204;50.600;4.608;2022-10-22T14:44:43;22.50;81.40
22416;DHT22;12204;50.600;4.608;2022-10-22T14:49:46;22.40;81.20
22416;DHT22;12204;50.600;4.608;2022-10-22T14:54:51;22.40;81.30
22416;DHT22;12204;50.600;4.608;2022-10-22T14:59:55;22.40;81.20
22416;DHT22;12204;50.600;4.608;2022-10-22T15:04:58;22.40;81.20
22416;DHT22;12204;50.600;4.608;2022-10-22T15:10:06;22.40;80.90
22416;DHT22;12204;50.600;4.608;2022-10-22T15:15:11;22.40;79.60
22416;DHT22;12204;50.600;4.608;2022-10-22T15:20:22;22.50;78.40
22416;DHT22;12204;50.600;4.608;2022-10-22T15:25:27;22.40;78.40
22416;DHT22;12204;50.600;4.608;2022-10-22T15:30:31;22.50;78.30
22416;DHT22;12204;50.600;4.608;2022-10-22T15:35:35;22.60;78.90
22416;DHT22;12204;50.600;4.608;2022-10-22T15:40:39;22.60;79.80
22416;DHT22;12204;50.600;4.608;2022-10-22T15:45:43;22.60;79.20
22416;DHT22;12204;50.600;4.608;2022-10-22T15:50:49;22.50;79.20
22416;DHT22;12204;50.600;4.608;2022-10-22T15:55:54;22.50;79.80
22416;DHT22;12204;50.600;4.608;2022-10-22T16:01:04;22.50;80.60
22416;DHT22;12204;50.600;4.608;2022-10-22T16:06:08;22.50;80.40
22416;DHT22;12204;50.600;4.608;2022-10-22T16:11:13;22.50;80.70
22416;DHT22;12204;50.600;4.608;2022-10-22T16:16:17;22.60;80.80
22416;DHT22;12204;50.600;4.608;2022-10-22T16:21:21;22.60;80.30
22416;DHT22;12204;50.600;4.608;2022-10-22T16:26:27;22.60;80.10
22416;DHT22;12204;50.600;4.608;2022-10-22T16:31:30;22.60;80.10
22416;DHT22;12204;50.600;4.608;2022-10-22T16:36:34;22.60;80.10
22416;DHT22;12204;50.600;4.608;2022-10-22T16:41:40;22.60;80.40
22416;DHT22;12204;50.600;4.608;2022-10-22T16:46:44;22.50;80.40
22416;DHT22;12204;50.600;4.608;2022-10-22T16:51:48;22.50;80.50
22416;DHT22;12204;50.600;4.608;2022-10-22T16:56:53;22.50;80.70
22416;DHT22;12204;50.600;4.608;2022-10-22T17:01:56;22.50;81.00
22416;DHT22;12204;50.600;4.608;2022-10-22T17:07:00;22.50;81.10
22416;DHT22;12204;50.600;4.608;2022-10-22T17:12:05;22.40;81.00
22416;DHT22;12204;50.600;4.608;2022-10-22T17:17:09;22.40;81.20
22416;DHT22;12204;50.600;4.608;2022-10-22T17:22:13;22.40;81.90
22416;DHT22;12204;50.600;4.608;2022-10-22T17:27:20;22.40;81.30
22416;DHT22;12204;50.600;4.608;2022-10-22T17:32:24;22.40;81.40
22416;DHT22;12204;50.600;4.608;2022-10-22T17:37:28;22.30;81.20
22416;DHT22;12204;50.600;4.608;2022-10-22T17:42:33;22.40;81.40
22416;DHT22;12204;50.600;4.608;2022-10-22T17:47:37;22.40;81.40
22416;DHT22;12204;50.600;4.608;2022-10-22T17:52:41;22.40;81.40
22416;DHT22;12204;50.600;4.608;2022-10-22T17:57:47;22.30;81.40
22416;DHT22;12204;50.600;4.608;2022-10-22T18:02:50;22.30;81.40
22416;DHT22;12204;50.600;4.608;2022-10-22T18:07:55;22.30;81.40
22416;DHT22;12204;50.600;4.608;2022-10-22T18:13:00;22.30;81.50
22416;DHT22;12204;50.600;4.608;2022-10-22T18:18:04;22.30;81.50
22416;DHT22;12204;50.600;4.608;2022-10-22T18:23:08;22.30;81.50
22416;DHT22;12204;50.600;4.608;2022-10-22T18:28:13;22.30;81.60
22416;DHT22;12204;50.600;4.608;2022-10-22T18:33:18;22.30;81.60
22416;DHT22;12204;50.600;4.608;2022-10-22T18:38:25;22.20;81.60
22416;DHT22;12204;50.600;4.608;2022-10-22T18:43:29;22.20;81.60
22416;DHT22;12204;50.600;4.608;2022-10-22T18:48:33;22.20;82.40
22416;DHT22;12204;50.600;4.608;2022-10-22T18:53:37;22.20;81.80
22416;DHT22;12204;50.600;4.608;2022-10-22T18:58:45;22.30;81.80
22416;DHT22;12204;50.600;4.608;2022-10-22T19:03:50;22.40;81.70
22416;DHT22;12204;50.600;4.608;2022-10-22T19:08:54;22.40;81.50
22416;DHT22;12204;50.600;4.608;2022-10-22T19:13:59;22.50;81.50
22416;DHT22;12204;50.600;4.608;2022-10-22T19:19:05;22.50;81.30
22416;DHT22;12204;50.600;4.608;2022-10-22T19:24:10;22.50;81.40
22416;DHT22;12204;50.600;4.608;2022-10-22T19:29:17;22.50;81.30
22416;DHT22;12204;50.600;4.608;2022-10-22T19:34:22;22.50;81.30
22416;DHT22;12204;50.600;4.608;2022-10-22T19:39:25;22.50;81.10
22416;DHT22;12204;50.600;4.608;2022-10-22T19:44:30;22.50;81.20
22416;DHT22;12204;50.600;4.608;2022-10-22T19:49:34;22.50;81.20
22416;DHT22;12204;50.600;4.608;2022-10-22T19:54:37;22.50;81.30
22416;DHT22;12204;50.600;4.608;2022-10-22T19:59:44;22.50;81.30
22416;DHT22;12204;50.600;4.608;2022-10-22T20:04:47;22.50;82.00
22416;DHT22;12204;50.600;4.608;2022-10-22T20:09:51;22.50;81.30
22416;DHT22;12204;50.600;4.608;2022-10-22T20:14:56;22.50;81.40
22416;DHT22;12204;50.600;4.608;2022-10-22T20:20:03;22.40;81.40
22416;DHT22;12204;50.600;4.608;2022-10-22T20:25:07;22.40;81.50
22416;DHT22;12204;50.600;4.608;2022-10-22T20:30:13;22.40;81.60
22416;DHT22;12204;50.600;4.608;2022-10-22T20:35:17;22.40;81.60
22416;DHT22;12204;50.600;4.608;2022-10-22T20:40:21;22.40;81.70
22416;DHT22;12204;50.600;4.608;2022-10-22T20:45:28;22.40;81.80
22416;DHT22;12204;50.600;4.608;2022-10-22T20:50:32;22.40;81.90
22416;DHT22;12204;50.600;4.608;2022-10-22T20:55:36;22.40;81.90
22416;DHT22;12204;50.600;4.608;2022-10-22T21:00:41;22.30;81.80
22416;DHT22;12204;50.600;4.608;2022-10-22T21:05:44;22.30;81.90
22416;DHT22;12204;50.600;4.608;2022-10-22T21:10:48;22.30;81.90
22416;DHT22;12204;50.600;4.608;2022-10-22T21:15:53;22.40;82.10
22416;DHT22;12204;50.600;4.608;2022-10-22T21:20:56;22.40;84.60
22416;DHT22;12204;50.600;4.608;2022-10-22T21:26:00;22.50;86.10
22416;DHT22;12204;50.600;4.608;2022-10-22T21:31:06;22.60;85.30
22416;DHT22;12204;50.600;4.608;2022-10-22T21:36:11;22.50;85.80
22416;DHT22;12204;50.600;4.608;2022-10-22T21:41:20;22.60;85.70
22416;DHT22;12204;50.600;4.608;2022-10-22T21:46:27;22.60;85.60
22416;DHT22;12204;50.600;4.608;2022-10-22T21:51:32;22.60;85.10
22416;DHT22;12204;50.600;4.608;2022-10-22T21:56:39;22.60;86.00
22416;DHT22;12204;50.600;4.608;2022-10-22T22:01:44;22.60;86.00
22416;DHT22;12204;50.600;4.608;2022-10-22T22:06:48;22.60;86.20
22416;DHT22;12204;50.600;4.608;2022-10-22T22:11:51;22.70;86.20
22416;DHT22;12204;50.600;4.608;2022-10-22T22:16:56;22.70;86.10
22416;DHT22;12204;50.600;4.608;2022-10-22T22:22:00;22.70;85.90
22416;DHT22;12204;50.600;4.608;2022-10-22T22:27:03;22.70;86.00
22416;DHT22;12204;50.600;4.608;2022-10-22T22:32:08;22.70;85.70
22416;DHT22;12204;50.600;4.608;2022-10-22T22:37:14;22.70;85.80
22416;DHT22;12204;50.600;4.608;2022-10-22T22:42:18;22.70;85.90
22416;DHT22;12204;50.600;4.608;2022-10-22T22:47:25;22.70;85.70
22416;DHT22;12204;50.600;4.608;2022-10-22T22:52:28;22.70;85.70
22416;DHT22;12204;50.600;4.608;2022-10-22T22:57:32;22.70;85.60
22416;DHT22;12204;50.600;4.608;2022-10-22T23:02:38;22.70;85.50
22416;DHT22;12204;50.600;4.608;2022-10-22T23:07:43;22.70;85.60
22416;DHT22;12204;50.600;4.608;2022-10-22T23:12:46;22.70;85.60
22416;DHT22;12204;50.600;4.608;2022-10-22T23:17:52;22.70;85.50
22416;DHT22;12204;50.600;4.608;2022-10-22T23:22:56;22.70;85.50
22416;DHT22;12204;50.600;4.608;2022-10-22T23:27:59;22.70;85.50
22416;DHT22;12204;50.600;4.608;2022-10-22T23:33:04;22.70;85.50
22416;DHT22;12204;50.600;4.608;2022-10-22T23:38:08;22.70;85.50
22416;DHT22;12204;50.600;4.608;2022-10-22T23:43:11;22.70;85.60
22416;DHT22;12204;50.600;4.608;2022-10-22T23:48:16;22.70;86.00
22416;DHT22;12204;50.600;4.608;2022-10-22T23:53:20;22.70;86.30
22416;DHT22;12204;50.600;4.608;2022-10-22T23:58:23;22.70;86.40
